sensor_id;sensor_type;location;lat;lon;timestamp;pressure;altitude;pressure_sealevel;temperature;humidity
12247;BME280;6186;52.022;4.692;2023-04-15T00:01:44;100915.25;;;11.56;55.46
12247;BME280;6186;52.022;4.692;2023-04-15T00:04:09;100907.41;;;11.53;55.43
12247;BME280;6186;52.022;4.692;2023-04-15T00:06:36;100902.41;;;11.44;55.23
12247;BME280;6186;52.022;4.692;2023-04-15T00:09:01;100918.16;;;11.47;55.16
12247;BME280;6186;52.022;4.692;2023-04-15T00:11:26;100912.19;;;11.40;55.23
12247;BME280;6186;52.022;4.692;2023-04-15T00:13:52;100915.84;;;11.34;55.33
12247;BME280;6186;52.022;4.692;2023-04-15T00:16:17;100922.09;;;11.30;55.13
12247;BME280;6186;52.022;4.692;2023-04-15T00:18:42;100923.03;;;11.28;55.35
12247;BME280;6186;52.022;4.692;2023-04-15T00:21:07;100927.53;;;11.26;54.96
12247;BME280;6186;52.022;4.692;2023-04-15T00:23:32;100916.31;;;11.18;55.27
12247;BME280;6186;52.022;4.692;2023-04-15T00:25:58;100925.19;;;11.14;55.08
12247;BME280;6186;52.022;4.692;2023-04-15T00:28:23;100924.41;;;11.10;55.10
12247;BME280;6186;52.022;4.692;2023-04-15T00:30:49;100925.44;;;11.05;54.90
12247;BME280;6186;52.022;4.692;2023-04-15T00:33:14;100924.63;;;11.03;55.13
12247;BME280;6186;52.022;4.692;2023-04-15T00:35:39;100918.56;;;10.98;54.89
12247;BME280;6186;52.022;4.692;2023-04-15T00:38:05;100925.63;;;10.97;55.20
12247;BME280;6186;52.022;4.692;2023-04-15T00:40:30;100929.25;;;10.93;54.85
12247;BME280;6186;52.022;4.692;2023-04-15T00:42:55;100912.03;;;10.80;54.95
12247;BME280;6186;52.022;4.692;2023-04-15T00:45:21;100912.13;;;10.76;54.73
12247;BME280;6186;52.022;4.692;2023-04-15T00:47:46;100924.38;;;10.78;55.29
12247;BME280;6186;52.022;4.692;2023-04-15T00:50:12;100917.47;;;10.73;55.01
12247;BME280;6186;52.022;4.692;2023-04-15T00:52:38;100932.31;;;10.77;55.23
12247;BME280;6186;52.022;4.692;2023-04-15T00:55:04;100921.03;;;10.70;54.90
12247;BME280;6186;52.022;4.692;2023-04-15T00:57:30;100917.66;;;10.65;54.99
12247;BME280;6186;52.022;4.692;2023-04-15T00:59:56;100920.25;;;10.67;55.02
12247;BME280;6186;52.022;4.692;2023-04-15T01:02:22;100923.81;;;10.64;55.07
12247;BME280;6186;52.022;4.692;2023-04-15T01:04:48;100919.53;;;10.60;54.90
12247;BME280;6186;52.022;4.692;2023-04-15T01:07:13;100916.19;;;10.54;55.11
12247;BME280;6186;52.022;4.692;2023-04-15T01:09:39;100921.31;;;10.60;55.17
12247;BME280;6186;52.022;4.692;2023-04-15T01:12:06;100923.06;;;10.59;55.02
12247;BME280;6186;52.022;4.692;2023-04-15T01:14:32;100894.53;;;10.43;55.36
12247;BME280;6186;52.022;4.692;2023-04-15T01:16:58;100913.63;;;10.51;55.16
12247;BME280;6186;52.022;4.692;2023-04-15T01:19:23;100924.13;;;10.52;55.13
12247;BME280;6186;52.022;4.692;2023-04-15T01:21:48;100930.28;;;10.51;55.18
12247;BME280;6186;52.022;4.692;2023-04-15T01:24:17;100917.34;;;10.42;55.08
12247;BME280;6186;52.022;4.692;2023-04-15T01:26:42;100927.81;;;10.43;54.93
12247;BME280;6186;52.022;4.692;2023-04-15T01:29:08;100912.16;;;10.37;55.11
12247;BME280;6186;52.022;4.692;2023-04-15T01:31:33;100933.16;;;10.40;55.28
12247;BME280;6186;52.022;4.692;2023-04-15T01:33:59;100925.44;;;10.33;55.21
12247;BME280;6186;52.022;4.692;2023-04-15T01:36:24;100934.19;;;10.35;55.29
12247;BME280;6186;52.022;4.692;2023-04-15T01:38:49;100932.44;;;10.34;54.99
12247;BME280;6186;52.022;4.692;2023-04-15T01:41:15;100925.44;;;10.33;55.17
12247;BME280;6186;52.022;4.692;2023-04-15T01:43:40;100935.97;;;10.31;55.20
12247;BME280;6186;52.022;4.692;2023-04-15T01:46:06;100933.44;;;10.28;55.10
12247;BME280;6186;52.022;4.692;2023-04-15T01:48:31;100939.69;;;10.23;54.99
12247;BME280;6186;52.022;4.692;2023-04-15T01:50:57;100939.78;;;10.20;55.34
12247;BME280;6186;52.022;4.692;2023-04-15T01:53:23;100935.41;;;10.19;55.03
12247;BME280;6186;52.022;4.692;2023-04-15T01:55:49;100923.34;;;10.10;55.36
12247;BME280;6186;52.022;4.692;2023-04-15T01:58:14;100932.06;;;10.11;55.25
12247;BME280;6186;52.022;4.692;2023-04-15T02:00:40;100944.25;;;10.15;55.43
12247;BME280;6186;52.022;4.692;2023-04-15T02:03:05;100939.91;;;10.14;55.28
12247;BME280;6186;52.022;4.692;2023-04-15T02:05:30;100937.28;;;10.14;55.49
12247;BME280;6186;52.022;4.692;2023-04-15T02:07:56;100940.78;;;10.13;55.27
12247;BME280;6186;52.022;4.692;2023-04-15T02:10:21;100939.09;;;10.09;55.42
12247;BME280;6186;52.022;4.692;2023-04-15T02:12:46;100937.41;;;10.06;55.24
12247;BME280;6186;52.022;4.692;2023-04-15T02:15:12;100938.34;;;10.04;55.51
12247;BME280;6186;52.022;4.692;2023-04-15T02:17:37;100947.06;;;10.06;55.42
12247;BME280;6186;52.022;4.692;2023-04-15T02:20:03;100938.28;;;10.05;55.54
12247;BME280;6186;52.022;4.692;2023-04-15T02:22:28;100945.34;;;10.05;55.50
12247;BME280;6186;52.022;4.692;2023-04-15T02:24:53;100947.97;;;10.03;55.67
12247;BME280;6186;52.022;4.692;2023-04-15T02:27:19;100946.25;;;10.02;55.41
12247;BME280;6186;52.022;4.692;2023-04-15T02:29:44;100948.94;;;10.01;55.70
12247;BME280;6186;52.022;4.692;2023-04-15T02:32:10;100954.19;;;10.01;55.32
12247;BME280;6186;52.022;4.692;2023-04-15T02:34:36;100955.97;;;9.99;55.61
12247;BME280;6186;52.022;4.692;2023-04-15T02:37:01;100957.78;;;9.97;55.56
12247;BME280;6186;52.022;4.692;2023-04-15T02:39:26;100963.06;;;9.94;55.38
12247;BME280;6186;52.022;4.692;2023-04-15T02:41:51;100962.25;;;9.92;55.41
12247;BME280;6186;52.022;4.692;2023-04-15T02:44:17;100957.94;;;9.89;55.73
12247;BME280;6186;52.022;4.692;2023-04-15T02:46:42;100971.09;;;9.89;55.50
12247;BME280;6186;52.022;4.692;2023-04-15T02:49:07;100971.97;;;9.88;55.47
12247;BME280;6186;52.022;4.692;2023-04-15T02:51:32;100968.53;;;9.85;55.79
12247;BME280;6186;52.022;4.692;2023-04-15T02:53:58;100973.00;;;9.81;55.52
12247;BME280;6186;52.022;4.692;2023-04-15T02:56:23;100972.19;;;9.78;55.77
12247;BME280;6186;52.022;4.692;2023-04-15T02:58:48;100975.78;;;9.74;55.65
12247;BME280;6186;52.022;4.692;2023-04-15T03:01:13;100980.25;;;9.69;55.64
12247;BME280;6186;52.022;4.692;2023-04-15T03:03:38;100982.09;;;9.65;55.53
12247;BME280;6186;52.022;4.692;2023-04-15T03:06:04;100981.25;;;9.62;55.58
12247;BME280;6186;52.022;4.692;2023-04-15T03:08:29;100982.25;;;9.56;55.75
12247;BME280;6186;52.022;4.692;2023-04-15T03:10:54;100981.47;;;9.51;55.76
12247;BME280;6186;52.022;4.692;2023-04-15T03:13:23;100983.31;;;9.44;55.64
12247;BME280;6186;52.022;4.692;2023-04-15T03:15:48;100984.31;;;9.39;55.36
12247;BME280;6186;52.022;4.692;2023-04-15T03:18:13;100987.03;;;9.34;55.66
12247;BME280;6186;52.022;4.692;2023-04-15T03:20:39;100987.94;;;9.32;55.49
12247;BME280;6186;52.022;4.692;2023-04-15T03:23:04;100978.47;;;9.22;55.55
12247;BME280;6186;52.022;4.692;2023-04-15T03:25:29;100989.91;;;9.21;55.64
12247;BME280;6186;52.022;4.692;2023-04-15T03:27:54;100994.34;;;9.17;55.55
12247;BME280;6186;52.022;4.692;2023-04-15T03:30:19;100995.31;;;9.12;55.52
12247;BME280;6186;52.022;4.692;2023-04-15T03:32:45;100999.75;;;9.08;55.56
12247;BME280;6186;52.022;4.692;2023-04-15T03:35:10;101001.53;;;9.06;55.85
12247;BME280;6186;52.022;4.692;2023-04-15T03:37:35;100998.97;;;9.02;56.15
12247;BME280;6186;52.022;4.692;2023-04-15T03:40:01;100999.16;;;8.91;55.70
12247;BME280;6186;52.022;4.692;2023-04-15T03:42:26;101004.28;;;8.97;55.89
12247;BME280;6186;52.022;4.692;2023-04-15T03:44:51;101016.56;;;8.95;55.98
12247;BME280;6186;52.022;4.692;2023-04-15T03:47:16;101016.59;;;8.94;56.03
12247;BME280;6186;52.022;4.692;2023-04-15T03:49:42;101016.63;;;8.92;56.02
12247;BME280;6186;52.022;4.692;2023-04-15T03:52:07;101024.56;;;8.89;55.90
12247;BME280;6186;52.022;4.692;2023-04-15T03:54:32;101010.72;;;8.78;56.05
12247;BME280;6186;52.022;4.692;2023-04-15T03:56:57;101027.28;;;8.83;56.25
12247;BME280;6186;52.022;4.692;2023-04-15T03:59:22;101011.66;;;8.73;56.13
12247;BME280;6186;52.022;4.692;2023-04-15T04:01:48;101023.09;;;8.70;56.10
12247;BME280;6186;52.022;4.692;2023-04-15T04:04:13;101030.88;;;8.75;56.27
12247;BME280;6186;52.022;4.692;2023-04-15T04:06:38;100988.44;;;8.47;56.27
12247;BME280;6186;52.022;4.692;2023-04-15T04:09:03;101036.22;;;8.70;56.37
12247;BME280;6186;52.022;4.692;2023-04-15T04:11:29;101040.66;;;8.67;56.29
12247;BME280;6186;52.022;4.692;2023-04-15T04:13:54;101037.22;;;8.60;56.51
12247;BME280;6186;52.022;4.692;2023-04-15T04:16:19;101037.19;;;8.63;56.49
12247;BME280;6186;52.022;4.692;2023-04-15T04:18:44;101060.81;;;8.62;56.63
12247;BME280;6186;52.022;4.692;2023-04-15T04:21:10;101048.66;;;8.56;56.45
12247;BME280;6186;52.022;4.692;2023-04-15T04:23:35;101053.97;;;8.53;56.46
12247;BME280;6186;52.022;4.692;2023-04-15T04:26:00;101056.59;;;8.50;56.63
12247;BME280;6186;52.022;4.692;2023-04-15T04:28:26;101061.00;;;8.48;56.62
12247;BME280;6186;52.022;4.692;2023-04-15T04:30:51;101053.25;;;8.39;56.81
12247;BME280;6186;52.022;4.692;2023-04-15T04:33:16;101064.56;;;8.42;56.84
12247;BME280;6186;52.022;4.692;2023-04-15T04:35:42;101062.88;;;8.38;56.75
12247;BME280;6186;52.022;4.692;2023-04-15T04:38:07;101071.59;;;8.42;56.80
12247;BME280;6186;52.022;4.692;2023-04-15T04:40:32;101075.13;;;8.38;56.90
12247;BME280;6186;52.022;4.692;2023-04-15T04:42:58;101082.06;;;8.40;57.02
12247;BME280;6186;52.022;4.692;2023-04-15T04:45:23;101085.59;;;8.39;56.99
12247;BME280;6186;52.022;4.692;2023-04-15T04:47:48;101095.22;;;8.39;57.11
12247;BME280;6186;52.022;4.692;2023-04-15T04:50:13;101093.47;;;8.39;57.20
12247;BME280;6186;52.022;4.692;2023-04-15T04:52:39;101101.34;;;8.39;57.08
12247;BME280;6186;52.022;4.692;2023-04-15T04:55:04;101098.75;;;8.38;57.15
12247;BME280;6186;52.022;4.692;2023-04-15T04:57:29;101100.47;;;8.39;57.07
12247;BME280;6186;52.022;4.692;2023-04-15T04:59:55;101112.72;;;8.37;57.26
12247;BME280;6186;52.022;4.692;2023-04-15T05:02:20;101111.88;;;8.36;57.11
12247;BME280;6186;52.022;4.692;2023-04-15T05:04:45;101117.09;;;8.38;57.29
12247;BME280;6186;52.022;4.692;2023-04-15T05:07:10;101125.00;;;8.36;57.27
12247;BME280;6186;52.022;4.692;2023-04-15T05:09:36;101132.00;;;8.33;57.12
12247;BME280;6186;52.022;4.692;2023-04-15T05:12:03;101134.63;;;8.33;57.11
12247;BME280;6186;52.022;4.692;2023-04-15T05:14:28;101138.19;;;8.30;57.34
12247;BME280;6186;52.022;4.692;2023-04-15T05:16:53;101137.28;;;8.30;57.33
12247;BME280;6186;52.022;4.692;2023-04-15T05:19:18;101147.78;;;8.30;57.58
12247;BME280;6186;52.022;4.692;2023-04-15T05:21:44;101144.31;;;8.28;57.56
12247;BME280;6186;52.022;4.692;2023-04-15T05:24:09;101154.81;;;8.28;57.70
12247;BME280;6186;52.022;4.692;2023-04-15T05:26:34;101164.34;;;8.33;57.66
12247;BME280;6186;52.022;4.692;2023-04-15T05:28:59;101167.84;;;8.35;57.70
12247;BME280;6186;52.022;4.692;2023-04-15T05:31:25;101157.38;;;8.32;57.78
12247;BME280;6186;52.022;4.692;2023-04-15T05:33:50;101172.13;;;8.42;58.02
12247;BME280;6186;52.022;4.692;2023-04-15T05:36:15;101176.47;;;8.45;58.03
12247;BME280;6186;52.022;4.692;2023-04-15T05:38:41;101179.91;;;8.48;58.24
12247;BME280;6186;52.022;4.692;2023-04-15T05:41:06;101185.97;;;8.55;58.42
12247;BME280;6186;52.022;4.692;2023-04-15T05:43:31;101193.78;;;8.60;58.16
12247;BME280;6186;52.022;4.692;2023-04-15T05:45:56;101170.38;;;8.41;58.34
12247;BME280;6186;52.022;4.692;2023-04-15T05:48:22;101202.50;;;8.65;58.54
12247;BME280;6186;52.022;4.692;2023-04-15T05:50:47;101214.66;;;8.72;58.50
12247;BME280;6186;52.022;4.692;2023-04-15T05:53:12;101228.56;;;8.77;58.60
12247;BME280;6186;52.022;4.692;2023-04-15T05:55:37;101225.03;;;8.81;58.79
12247;BME280;6186;52.022;4.692;2023-04-15T05:58:02;101230.25;;;8.84;58.75
12247;BME280;6186;52.022;4.692;2023-04-15T06:00:28;101229.31;;;8.86;58.99
12247;BME280;6186;52.022;4.692;2023-04-15T06:02:55;101232.84;;;8.85;59.09
12247;BME280;6186;52.022;4.692;2023-04-15T06:05:20;101242.34;;;8.95;59.17
12247;BME280;6186;52.022;4.692;2023-04-15T06:07:45;101248.41;;;9.00;59.21
12247;BME280;6186;52.022;4.692;2023-04-15T06:10:10;101255.41;;;9.01;59.32
12247;BME280;6186;52.022;4.692;2023-04-15T06:12:36;101258.84;;;9.08;59.51
12247;BME280;6186;52.022;4.692;2023-04-15T06:15:01;101250.97;;;9.05;59.67
12247;BME280;6186;52.022;4.692;2023-04-15T06:17:26;101263.09;;;9.15;59.82
12247;BME280;6186;52.022;4.692;2023-04-15T06:19:51;101282.28;;;9.20;59.83
12247;BME280;6186;52.022;4.692;2023-04-15T06:22:17;101285.78;;;9.23;59.76
12247;BME280;6186;52.022;4.692;2023-04-15T06:24:42;101296.25;;;9.25;59.97
12247;BME280;6186;52.022;4.692;2023-04-15T06:27:07;101305.00;;;9.27;59.74
12247;BME280;6186;52.022;4.692;2023-04-15T06:29:32;101307.56;;;9.30;60.30
12247;BME280;6186;52.022;4.692;2023-04-15T06:31:58;101308.41;;;9.33;60.26
12247;BME280;6186;52.022;4.692;2023-04-15T06:34:23;101304.00;;;9.35;60.30
12247;BME280;6186;52.022;4.692;2023-04-15T06:36:48;101307.44;;;9.40;60.62
12247;BME280;6186;52.022;4.692;2023-04-15T06:39:13;101321.38;;;9.45;60.58
12247;BME280;6186;52.022;4.692;2023-04-15T06:41:38;101323.06;;;9.51;60.77
12247;BME280;6186;52.022;4.692;2023-04-15T06:44:04;101325.63;;;9.57;60.60
12247;BME280;6186;52.022;4.692;2023-04-15T06:46:29;101337.84;;;9.61;60.75
12247;BME280;6186;52.022;4.692;2023-04-15T06:48:54;101333.38;;;9.66;61.10
12247;BME280;6186;52.022;4.692;2023-04-15T06:51:19;101334.16;;;9.71;61.33
12247;BME280;6186;52.022;4.692;2023-04-15T06:53:45;101335.88;;;9.75;61.09
12247;BME280;6186;52.022;4.692;2023-04-15T06:56:10;101340.19;;;9.79;61.28
12247;BME280;6186;52.022;4.692;2023-04-15T06:58:35;101332.28;;;9.81;61.56
12247;BME280;6186;52.022;4.692;2023-04-15T07:01:01;101339.16;;;9.91;61.92
12247;BME280;6186;52.022;4.692;2023-04-15T07:03:26;101341.69;;;9.97;61.76
12247;BME280;6186;52.022;4.692;2023-04-15T07:05:51;101348.66;;;10.01;62.01
12247;BME280;6186;52.022;4.692;2023-04-15T07:08:18;101340.66;;;10.07;62.43
12247;BME280;6186;52.022;4.692;2023-04-15T07:10:43;101345.81;;;10.16;62.31
12247;BME280;6186;52.022;4.692;2023-04-15T07:13:08;101352.69;;;10.24;62.97
12247;BME280;6186;52.022;4.692;2023-04-15T07:15:34;101354.22;;;10.37;63.06
12247;BME280;6186;52.022;4.692;2023-04-15T07:17:59;101361.09;;;10.48;63.35
12247;BME280;6186;52.022;4.692;2023-04-15T07:20:24;101355.75;;;10.54;63.13
12247;BME280;6186;52.022;4.692;2023-04-15T07:22:49;101354.69;;;10.62;63.35
12247;BME280;6186;52.022;4.692;2023-04-15T07:25:14;101358.97;;;10.69;63.78
12247;BME280;6186;52.022;4.692;2023-04-15T07:27:40;101354.53;;;10.71;64.03
12247;BME280;6186;52.022;4.692;2023-04-15T07:30:05;101366.63;;;10.83;64.09
12247;BME280;6186;52.022;4.692;2023-04-15T07:32:31;101370.88;;;10.91;64.22
12247;BME280;6186;52.022;4.692;2023-04-15T07:34:56;101379.44;;;11.02;64.60
12247;BME280;6186;52.022;4.692;2023-04-15T07:37:21;101376.59;;;11.13;64.71
12247;BME280;6186;52.022;4.692;2023-04-15T07:39:46;101386.06;;;11.23;65.28
12247;BME280;6186;52.022;4.692;2023-04-15T07:42:12;101388.50;;;11.33;65.16
12247;BME280;6186;52.022;4.692;2023-04-15T07:44:37;101392.72;;;11.42;65.59
12247;BME280;6186;52.022;4.692;2023-04-15T07:47:02;101392.44;;;11.56;65.82
12247;BME280;6186;52.022;4.692;2023-04-15T07:49:27;101395.69;;;11.70;66.28
12247;BME280;6186;52.022;4.692;2023-04-15T07:51:53;101403.22;;;11.88;66.82
12247;BME280;6186;52.022;4.692;2023-04-15T07:54:18;101407.25;;;12.04;67.02
12247;BME280;6186;52.022;4.692;2023-04-15T07:56:43;101411.31;;;12.20;67.31
12247;BME280;6186;52.022;4.692;2023-04-15T07:59:08;101411.16;;;12.26;67.42
12247;BME280;6186;52.022;4.692;2023-04-15T08:01:33;101421.38;;;12.41;67.67
12247;BME280;6186;52.022;4.692;2023-04-15T08:03:59;101427.25;;;12.52;68.08
12247;BME280;6186;52.022;4.692;2023-04-15T08:06:24;101433.94;;;12.67;68.30
12247;BME280;6186;52.022;4.692;2023-04-15T08:08:49;101442.41;;;12.81;68.59
12247;BME280;6186;52.022;4.692;2023-04-15T08:11:15;101450.16;;;12.88;68.53
12247;BME280;6186;52.022;4.692;2023-04-15T08:13:40;101441.00;;;13.03;68.88
12247;BME280;6186;52.022;4.692;2023-04-15T08:16:20;101446.81;;;13.15;69.17
12247;BME280;6186;52.022;4.692;2023-04-15T08:18:47;101458.69;;;13.33;69.66
12247;BME280;6186;52.022;4.692;2023-04-15T08:21:12;101460.00;;;13.51;70.08
12247;BME280;6186;52.022;4.692;2023-04-15T08:23:38;101459.41;;;13.72;70.53
12247;BME280;6186;52.022;4.692;2023-04-15T08:26:04;101462.44;;;13.87;70.64
12247;BME280;6186;52.022;4.692;2023-04-15T08:28:29;101471.91;;;13.96;70.55
12247;BME280;6186;52.022;4.692;2023-04-15T08:30:54;101464.59;;;14.05;70.67
12247;BME280;6186;52.022;4.692;2023-04-15T08:33:19;101473.03;;;14.18;70.84
12247;BME280;6186;52.022;4.692;2023-04-15T08:35:45;101479.84;;;14.27;70.80
12247;BME280;6186;52.022;4.692;2023-04-15T08:38:10;101484.69;;;14.42;71.32
12247;BME280;6186;52.022;4.692;2023-04-15T08:40:41;101492.94;;;14.60;71.73
12247;BME280;6186;52.022;4.692;2023-04-15T08:43:08;101495.06;;;14.77;71.78
12247;BME280;6186;52.022;4.692;2023-04-15T08:45:37;101495.50;;;14.91;71.93
12247;BME280;6186;52.022;4.692;2023-04-15T08:48:04;101495.88;;;15.05;71.95
12247;BME280;6186;52.022;4.692;2023-04-15T08:50:30;101494.69;;;15.15;71.90
12247;BME280;6186;52.022;4.692;2023-04-15T08:52:58;101496.94;;;15.26;72.31
12247;BME280;6186;52.022;4.692;2023-04-15T08:55:29;101508.56;;;15.49;72.90
12247;BME280;6186;52.022;4.692;2023-04-15T08:57:56;101506.94;;;15.70;73.51
12247;BME280;6186;52.022;4.692;2023-04-15T09:00:22;101503.44;;;15.92;73.45
12247;BME280;6186;52.022;4.692;2023-04-15T09:02:48;101506.28;;;16.11;73.87
12247;BME280;6186;52.022;4.692;2023-04-15T09:05:13;101509.75;;;16.36;74.51
12247;BME280;6186;52.022;4.692;2023-04-15T09:07:38;101510.47;;;16.64;75.17
12247;BME280;6186;52.022;4.692;2023-04-15T09:10:04;101522.75;;;16.88;75.52
12247;BME280;6186;52.022;4.692;2023-04-15T09:12:29;101518.75;;;17.00;75.16
12247;BME280;6186;52.022;4.692;2023-04-15T09:14:55;101523.81;;;17.06;74.88
12247;BME280;6186;52.022;4.692;2023-04-15T09:17:21;101521.16;;;17.28;76.45
12247;BME280;6186;52.022;4.692;2023-04-15T09:19:46;101530.53;;;17.58;77.41
12247;BME280;6186;52.022;4.692;2023-04-15T09:22:12;101535.13;;;17.74;77.49
12247;BME280;6186;52.022;4.692;2023-04-15T09:24:38;101531.84;;;17.88;78.13
12247;BME280;6186;52.022;4.692;2023-04-15T09:27:04;101543.00;;;18.16;79.25
12247;BME280;6186;52.022;4.692;2023-04-15T09:29:29;101553.28;;;18.44;80.45
12247;BME280;6186;52.022;4.692;2023-04-15T09:31:54;101541.25;;;18.72;81.86
12247;BME280;6186;52.022;4.692;2023-04-15T09:34:20;101557.09;;;19.13;83.48
12247;BME280;6186;52.022;4.692;2023-04-15T09:39:10;101552.13;;;19.92;86.22
12247;BME280;6186;52.022;4.692;2023-04-15T09:41:35;101548.47;;;20.27;87.42
12247;BME280;6186;52.022;4.692;2023-04-15T09:44:00;101554.78;;;20.59;88.20
12247;BME280;6186;52.022;4.692;2023-04-15T09:46:42;101561.13;;;20.88;88.97
12247;BME280;6186;52.022;4.692;2023-04-15T09:49:09;101561.72;;;21.10;89.64
12247;BME280;6186;52.022;4.692;2023-04-15T09:51:35;101555.63;;;21.22;88.96
12247;BME280;6186;52.022;4.692;2023-04-15T09:54:00;101563.94;;;21.17;87.19
12247;BME280;6186;52.022;4.692;2023-04-15T09:56:33;101572.81;;;21.18;87.31
12247;BME280;6186;52.022;4.692;2023-04-15T09:58:58;101569.53;;;21.28;87.76
12247;BME280;6186;52.022;4.692;2023-04-15T10:01:23;101576.84;;;21.40;87.64
12247;BME280;6186;52.022;4.692;2023-04-15T10:03:49;101579.63;;;21.39;85.69
12247;BME280;6186;52.022;4.692;2023-04-15T10:06:14;101580.31;;;21.42;86.41
12247;BME280;6186;52.022;4.692;2023-04-15T10:08:40;101574.50;;;21.50;85.42
12247;BME280;6186;52.022;4.692;2023-04-15T10:11:06;101586.38;;;21.46;84.84
12247;BME280;6186;52.022;4.692;2023-04-15T10:13:31;101580.47;;;21.55;86.31
12247;BME280;6186;52.022;4.692;2023-04-15T10:15:58;101590.56;;;21.95;89.01
12247;BME280;6186;52.022;4.692;2023-04-15T10:18:28;101590.63;;;22.23;88.21
12247;BME280;6186;52.022;4.692;2023-04-15T10:20:56;101595.03;;;22.38;86.77
12247;BME280;6186;52.022;4.692;2023-04-15T10:23:22;101584.13;;;22.56;87.72
12247;BME280;6186;52.022;4.692;2023-04-15T10:25:48;101602.53;;;22.76;86.20
12247;BME280;6186;52.022;4.692;2023-04-15T10:28:15;101601.94;;;22.85;85.66
12247;BME280;6186;52.022;4.692;2023-04-15T10:30:41;101596.28;;;22.89;84.48
12247;BME280;6186;52.022;4.692;2023-04-15T10:33:08;101608.06;;;22.87;84.46
12247;BME280;6186;52.022;4.692;2023-04-15T10:35:34;101606.75;;;22.66;80.99
12247;BME280;6186;52.022;4.692;2023-04-15T10:38:00;101610.25;;;22.24;78.20
12247;BME280;6186;52.022;4.692;2023-04-15T10:40:26;101608.38;;;21.96;76.94
12247;BME280;6186;52.022;4.692;2023-04-15T10:42:55;101605.47;;;21.85;77.53
12247;BME280;6186;52.022;4.692;2023-04-15T10:45:20;101612.13;;;21.78;75.55
12247;BME280;6186;52.022;4.692;2023-04-15T10:47:51;101611.88;;;21.67;74.89
12247;BME280;6186;52.022;4.692;2023-04-15T10:50:17;101619.47;;;21.75;76.13
12247;BME280;6186;52.022;4.692;2023-04-15T10:52:43;101612.31;;;22.05;77.23
12247;BME280;6186;52.022;4.692;2023-04-15T10:55:19;101615.81;;;22.21;76.36
12247;BME280;6186;52.022;4.692;2023-04-15T10:57:44;101611.50;;;22.46;78.79
12247;BME280;6186;52.022;4.692;2023-04-15T11:00:12;101622.66;;;22.83;79.66
12247;BME280;6186;52.022;4.692;2023-04-15T11:02:42;101625.16;;;23.26;81.18
12247;BME280;6186;52.022;4.692;2023-04-15T11:05:08;101624.06;;;23.70;82.27
12247;BME280;6186;52.022;4.692;2023-04-15T11:13:19;101626.47;;;24.39;80.73
12247;BME280;6186;52.022;4.692;2023-04-15T11:15:46;101624.94;;;24.47;79.38
12247;BME280;6186;52.022;4.692;2023-04-15T11:20:46;101630.44;;;24.46;79.30
12247;BME280;6186;52.022;4.692;2023-04-15T11:23:13;101639.06;;;24.38;77.14
12247;BME280;6186;52.022;4.692;2023-04-15T11:25:39;101650.69;;;24.39;77.66
12247;BME280;6186;52.022;4.692;2023-04-15T11:28:04;101642.09;;;24.46;76.52
12247;BME280;6186;52.022;4.692;2023-04-15T11:30:32;101659.88;;;24.49;75.79
12247;BME280;6186;52.022;4.692;2023-04-15T11:33:00;101652.31;;;24.54;74.50
12247;BME280;6186;52.022;4.692;2023-04-15T11:35:26;101648.25;;;24.36;72.67
12247;BME280;6186;52.022;4.692;2023-04-15T11:37:51;101656.72;;;24.30;72.85
12247;BME280;6186;52.022;4.692;2023-04-15T11:40:22;101662.84;;;23.92;69.54
12247;BME280;6186;52.022;4.692;2023-04-15T11:43:13;101668.31;;;23.52;67.64
12247;BME280;6186;52.022;4.692;2023-04-15T11:45:55;101678.72;;;23.29;66.34
12247;BME280;6186;52.022;4.692;2023-04-15T11:48:23;101679.00;;;23.25;66.80
12247;BME280;6186;52.022;4.692;2023-04-15T11:50:53;101679.75;;;23.41;67.07
12247;BME280;6186;52.022;4.692;2023-04-15T11:53:19;101673.13;;;23.47;65.86
12247;BME280;6186;52.022;4.692;2023-04-15T11:55:46;101675.06;;;23.45;65.05
12247;BME280;6186;52.022;4.692;2023-04-15T11:58:22;101681.78;;;23.09;62.39
12247;BME280;6186;52.022;4.692;2023-04-15T12:00:52;101679.03;;;22.69;61.31
12247;BME280;6186;52.022;4.692;2023-04-15T12:03:28;101666.34;;;22.42;60.97
12247;BME280;6186;52.022;4.692;2023-04-15T12:08:56;101679.34;;;22.05;60.25
12247;BME280;6186;52.022;4.692;2023-04-15T12:13:50;101689.88;;;21.78;58.53
12247;BME280;6186;52.022;4.692;2023-04-15T12:16:18;101696.81;;;21.67;58.29
12247;BME280;6186;52.022;4.692;2023-04-15T12:18:45;101700.06;;;21.72;59.02
12247;BME280;6186;52.022;4.692;2023-04-15T12:21:11;101706.78;;;21.79;58.79
12247;BME280;6186;52.022;4.692;2023-04-15T12:23:37;101695.38;;;21.75;58.31
12247;BME280;6186;52.022;4.692;2023-04-15T12:26:06;101710.19;;;21.51;56.86
12247;BME280;6186;52.022;4.692;2023-04-15T12:28:33;101709.75;;;21.27;56.70
12247;BME280;6186;52.022;4.692;2023-04-15T12:30:58;101715.03;;;21.29;57.25
12247;BME280;6186;52.022;4.692;2023-04-15T12:33:31;101709.94;;;21.24;56.88
12247;BME280;6186;52.022;4.692;2023-04-15T12:35:57;101719.69;;;20.93;55.84
12247;BME280;6186;52.022;4.692;2023-04-15T12:38:22;101733.63;;;20.67;56.16
12247;BME280;6186;52.022;4.692;2023-04-15T12:40:47;101739.41;;;20.57;56.02
12247;BME280;6186;52.022;4.692;2023-04-15T12:43:12;101739.22;;;20.45;55.62
12247;BME280;6186;52.022;4.692;2023-04-15T12:45:38;101734.06;;;20.57;56.52
12247;BME280;6186;52.022;4.692;2023-04-15T12:48:03;101745.06;;;20.69;56.27
12247;BME280;6186;52.022;4.692;2023-04-15T12:50:29;101747.00;;;20.49;55.01
12247;BME280;6186;52.022;4.692;2023-04-15T12:52:55;101745.94;;;20.18;54.19
12247;BME280;6186;52.022;4.692;2023-04-15T12:55:20;101748.97;;;20.10;54.37
12247;BME280;6186;52.022;4.692;2023-04-15T12:57:45;101746.47;;;20.07;54.29
12247;BME280;6186;52.022;4.692;2023-04-15T13:00:11;101748.69;;;20.16;54.85
12247;BME280;6186;52.022;4.692;2023-04-15T13:02:36;101755.78;;;20.17;54.27
12247;BME280;6186;52.022;4.692;2023-04-15T13:05:01;101766.06;;;19.89;53.52
12247;BME280;6186;52.022;4.692;2023-04-15T13:07:26;101764.53;;;19.85;53.77
12247;BME280;6186;52.022;4.692;2023-04-15T13:09:52;101766.34;;;19.66;53.26
12247;BME280;6186;52.022;4.692;2023-04-15T13:12:17;101764.25;;;19.54;53.52
12247;BME280;6186;52.022;4.692;2023-04-15T13:14:42;101758.34;;;19.66;54.23